Aérodrome :
LOGIN :

S'inscrire | Disclaimer

   EN    FR    IT 

 










Légende :    VFR   VFR Marginal   IFR   IFR Intensif   IFR Très Intensif
Visi : 
Plafond : 
>= 8 km
>= 3000ft
5 à 8 km
1000 à 3000 ft
1500m à 5 km
500 à 1000 ft
800 à 1500m
200 à 500 ft
< 800m
< 200 ft
Symboles :   Orages  Brouillard  Fortes neiges  Fortes précipitations  Vent > 20 kt
SIGMETs :   Divers  Orages  Givrage  Turbulence  Onde Orograph.  Cendres Volcan.






- Altitude de l'aérodrome : 459 ft
- Code IATA : JYV


EFJY - Jyvaskyla

DERNIER METAR :
  • 142050Z AUTO 28012KT 240V300 9999 OVC009 02/01 Q1008

METARs EXPIRÉS :
  • 142020Z AUTO 28013KT 9999 OVC006 02/01 Q1007
  • 141950Z AUTO 27011KT 240V310 9999 BKN007 OVC027 02/02 Q1006
  • 141920Z AUTO 28014KT 6000 -RA OVC005 04/02 Q1004
  • 141850Z 19010KT 160V220 5000 -RA BKN006 08/07 Q1003
  • 141820Z 17010KT 150V210 5000 -RA BKN007 08/07 Q1002

TAF TAF EFJY
Valide du 14 à 21h jusqu'au 15 à 21h UTC


142033Z 1421/1521 27012KT 9999 OVC006
TEMPO 1421/1502 SCT006 BKN015
BECMG 1502/1504 21004KT BKN020
TEMPO 1511/1521 OVC013



MET'MAP, la Météo Aéronautique d'un coup d'oeil ! - Copyright ORBIFLY Décembre 2007 - Disclaimer

ORBIFLY MET'MAP TEAM :

Programmation & Développement : Alexandra Zaïnal
Conception & Développement : Baudouin d'Aumeries
Co-Programmation & Développement : Marc-Olivier Méhu
Soutien technique & logistique : Manuel Goepfert

Contact : metmap@orbifly.com




SOURCES & CREDITS :

   NOAA